Time;durP1;ratioP1;P1;durP2;ratioP2;P2;SDS_P1;SDS_P2;PMS_P1;PMS_P2;Temp;Humidity;BMP_temperature;BMP_pressure;BME280_temperature;BME280_humidity;BME280_pressure;Samples;Min_cycle;Max_cycle;Signal;HPM_P1;HPM_P2
2022/07/01 00:01:36;;;;;;;1.88;1.00;;;;;;;;;;5031796;28;20033;-60
2022/07/01 00:04:02;;;;;;;1.35;0.90;;;;;;;;;;5033326;28;20026;-60
2022/07/01 00:06:28;;;;;;;2.38;0.90;;;;;;;;;;5033708;28;20489;-60
2022/07/01 00:08:54;;;;;;;2.20;0.90;;;;;;;;;;5029449;28;20029;-60
2022/07/01 00:11:20;;;;;;;1.90;0.70;;;;;;;;;;5030491;28;20037;-60
2022/07/01 00:13:46;;;;;;;1.48;0.90;;;;;;;;;;5032759;28;20022;-60
2022/07/01 00:16:12;;;;;;;1.27;0.73;;;;;;;;;;5033431;28;20093;-60
2022/07/01 00:18:38;;;;;;;3.65;1.00;;;;;;;;;;5033087;28;20112;-59
2022/07/01 00:21:04;;;;;;;2.05;0.90;;;;;;;;;;5033173;28;20036;-60
2022/07/01 00:23:31;;;;;;;1.10;0.98;;;;;;;;;;5033214;28;20486;-60
2022/07/01 00:25:57;;;;;;;1.60;1.00;;;;;;;;;;5032516;28;20493;-60
2022/07/01 00:28:23;;;;;;;1.17;0.68;;;;;;;;;;5032394;28;20034;-60
2022/07/01 00:30:49;;;;;;;1.50;0.93;;;;;;;;;;5032555;28;20064;-60
2022/07/01 00:33:15;;;;;;;1.30;0.90;;;;;;;;;;5032789;28;20049;-60
2022/07/01 00:35:41;;;;;;;2.45;1.20;;;;;;;;;;5032209;28;20056;-59
2022/07/01 00:38:07;;;;;;;2.25;1.15;;;;;;;;;;5033189;28;20028;-60
2022/07/01 00:40:34;;;;;;;1.50;0.93;;;;;;;;;;5032861;28;20470;-60
2022/07/01 00:43:00;;;;;;;2.35;1.00;;;;;;;;;;5032060;28;20033;-60
2022/07/01 00:45:26;;;;;;;0.80;0.60;;;;;;;;;;5032165;28;20077;-60
2022/07/01 00:47:52;;;;;;;1.38;0.85;;;;;;;;;;5028061;28;20036;-60
2022/07/01 00:50:18;;;;;;;1.42;0.90;;;;;;;;;;5032847;28;20029;-60
2022/07/01 00:52:45;;;;;;;1.80;0.80;;;;;;;;;;5032288;28;20034;-60
2022/07/01 00:55:12;;;;;;;1.15;0.80;;;;;;;;;;5032575;28;20030;-61
2022/07/01 00:57:40;;;;;;;2.72;1.00;;;;;;;;;;5032668;28;20096;-61
2022/07/01 01:00:08;;;;;;;1.17;1.00;;;;;;;;;;5031835;28;20017;-60
2022/07/01 01:02:34;;;;;;;1.15;0.90;;;;;;;;;;5030179;28;20686;-60
2022/07/01 01:05:00;;;;;;;1.25;0.80;;;;;;;;;;5032096;28;20033;-61
2022/07/01 01:07:27;;;;;;;1.58;0.90;;;;;;;;;;5032751;28;20471;-61
2022/07/01 01:09:53;;;;;;;0.88;0.73;;;;;;;;;;5031425;28;20029;-61
2022/07/01 01:12:19;;;;;;;1.20;0.80;;;;;;;;;;5032524;28;20107;-60
2022/07/01 01:14:46;;;;;;;0.57;0.57;;;;;;;;;;5031373;28;20019;-59
2022/07/01 01:17:12;;;;;;;1.55;0.77;;;;;;;;;;5032257;28;20029;-60
2022/07/01 01:19:39;;;;;;;1.33;0.60;;;;;;;;;;5031125;28;20049;-60
2022/07/01 01:22:05;;;;;;;0.90;0.70;;;;;;;;;;5029791;28;20030;-60
2022/07/01 01:24:31;;;;;;;2.15;1.50;;;;;;;;;;5031813;28;20179;-60
2022/07/01 01:26:57;;;;;;;0.95;0.60;;;;;;;;;;5023165;28;20034;-61
2022/07/01 01:29:23;;;;;;;1.42;0.80;;;;;;;;;;5031893;28;20040;-61
2022/07/01 01:31:49;;;;;;;1.95;0.82;;;;;;;;;;5031191;28;20033;-61
2022/07/01 01:34:15;;;;;;;0.85;0.60;;;;;;;;;;5031631;28;20051;-61
2022/07/01 01:36:41;;;;;;;1.17;0.80;;;;;;;;;;5032136;28;20113;-60
2022/07/01 01:39:16;;;;;;;0.57;0.57;;;;;;;;;;5029939;28;20037;-60
2022/07/01 01:41:42;;;;;;;0.98;0.60;;;;;;;;;;5031733;28;20478;-59
2022/07/01 01:44:08;;;;;;;1.33;0.70;;;;;;;;;;5031286;28;20029;-61
2022/07/01 01:46:36;;;;;;;1.10;0.80;;;;;;;;;;5030133;28;20037;-61
2022/07/01 01:49:03;;;;;;;0.75;0.63;;;;;;;;;;5030421;28;20317;-60
2022/07/01 01:51:30;;;;;;;2.85;1.23;;;;;;;;;;5027463;28;20056;-61
2022/07/01 01:53:56;;;;;;;1.67;0.60;;;;;;;;;;5029492;28;20033;-60
2022/07/01 01:56:22;;;;;;;1.05;0.80;;;;;;;;;;5031436;28;20034;-61
2022/07/01 01:58:49;;;;;;;1.15;0.80;;;;;;;;;;5030722;28;20036;-60
2022/07/01 02:01:16;;;;;;;1.35;0.80;;;;;;;;;;5031288;28;20108;-60
2022/07/01 02:03:43;;;;;;;0.50;0.50;;;;;;;;;;5031604;28;20036;-60
2022/07/01 02:06:09;;;;;;;1.00;0.75;;;;;;;;;;5030924;28;20064;-60
2022/07/01 02:08:36;;;;;;;1.40;0.50;;;;;;;;;;5031536;28;20021;-60
2022/07/01 02:11:02;;;;;;;2.75;0.73;;;;;;;;;;5029592;28;20466;-61
2022/07/01 02:13:28;;;;;;;2.65;0.88;;;;;;;;;;5031024;28;20116;-60
2022/07/01 02:15:55;;;;;;;1.05;0.70;;;;;;;;;;5030356;28;20494;-60
2022/07/01 02:18:21;;;;;;;0.82;0.70;;;;;;;;;;5031308;28;20057;-60
2022/07/01 02:20:47;;;;;;;0.98;0.70;;;;;;;;;;5030836;28;20102;-59
2022/07/01 02:23:13;;;;;;;0.93;0.55;;;;;;;;;;5031193;28;20053;-61
2022/07/01 02:25:39;;;;;;;0.90;0.52;;;;;;;;;;5023154;28;20541;-60
2022/07/01 02:28:05;;;;;;;0.95;0.63;;;;;;;;;;5029492;28;20079;-61
2022/07/01 02:30:35;;;;;;;0.90;0.80;;;;;;;;;;5030978;28;20537;-62
2022/07/01 02:33:01;;;;;;;1.00;0.47;;;;;;;;;;5030267;28;20034;-60
2022/07/01 02:35:27;;;;;;;1.48;0.60;;;;;;;;;;5030923;28;20046;-60
2022/07/01 02:37:54;;;;;;;0.68;0.60;;;;;;;;;;5029924;28;20038;-60
2022/07/01 02:40:20;;;;;;;1.30;0.60;;;;;;;;;;5031227;28;20071;-60
2022/07/01 02:42:46;;;;;;;0.77;0.50;;;;;;;;;;5030818;28;20036;-58
2022/07/01 02:45:12;;;;;;;1.17;0.70;;;;;;;;;;5030161;28;20040;-62
2022/07/01 02:47:40;;;;;;;0.40;0.40;;;;;;;;;;5024421;28;20148;-63
2022/07/01 02:50:07;;;;;;;1.27;0.75;;;;;;;;;;5030672;28;20723;-62
2022/07/01 02:52:34;;;;;;;1.25;0.90;;;;;;;;;;5031191;28;20030;-62
2022/07/01 02:55:01;;;;;;;0.70;0.60;;;;;;;;;;5030411;28;20105;-63
2022/07/01 02:57:27;;;;;;;0.95;0.75;;;;;;;;;;5030846;28;20470;-62
2022/07/01 02:59:53;;;;;;;0.63;0.57;;;;;;;;;;5032788;28;20083;-60
2022/07/01 03:02:19;;;;;;;0.63;0.50;;;;;;;;;;5034213;28;20062;-62
2022/07/01 03:04:46;;;;;;;0.50;0.50;;;;;;;;;;5031144;28;20026;-62
2022/07/01 03:07:12;;;;;;;0.80;0.60;;;;;;;;;;5032419;28;20094;-62
2022/07/01 03:09:39;;;;;;;0.68;0.50;;;;;;;;;;5034833;28;20482;-61
2022/07/01 03:12:24;;;;;;;1.40;1.30;;;;;;;;;;5033571;28;20394;-62
2022/07/01 03:14:51;;;;;;;0.50;0.50;;;;;;;;;;5034259;28;20028;-59
2022/07/01 03:17:17;;;;;;;0.47;0.47;;;;;;;;;;5033557;28;20029;-61
2022/07/01 03:19:43;;;;;;;1.08;0.80;;;;;;;;;;5034888;28;20034;-61
2022/07/01 03:22:09;;;;;;;0.77;0.55;;;;;;;;;;5033566;28;20026;-60
2022/07/01 03:24:35;;;;;;;0.60;0.43;;;;;;;;;;5034702;28;20037;-61
2022/07/01 03:27:01;;;;;;;0.70;0.50;;;;;;;;;;5033576;28;20036;-61
2022/07/01 03:29:27;;;;;;;0.85;0.68;;;;;;;;;;5034565;28;20029;-60
2022/07/01 03:31:53;;;;;;;0.82;0.68;;;;;;;;;;5036542;28;20055;-61
2022/07/01 03:34:19;;;;;;;0.85;0.60;;;;;;;;;;5035631;28;20050;-61
2022/07/01 03:36:46;;;;;;;1.10;0.60;;;;;;;;;;5034305;28;20789;-61
2022/07/01 03:39:12;;;;;;;1.13;0.73;;;;;;;;;;5033545;28;20192;-61
2022/07/01 03:41:38;;;;;;;0.60;0.50;;;;;;;;;;5034363;28;20478;-61
2022/07/01 03:44:05;;;;;;;0.73;0.50;;;;;;;;;;5033214;28;20028;-61
2022/07/01 03:46:31;;;;;;;0.60;0.50;;;;;;;;;;5032959;28;20510;-60
2022/07/01 03:48:58;;;;;;;0.70;0.50;;;;;;;;;;5024755;28;20022;-61
2022/07/01 03:51:24;;;;;;;1.30;0.63;;;;;;;;;;5034035;28;20029;-61
2022/07/01 03:56:35;;;;;;;0.73;0.50;;;;;;;;;;5033908;28;20036;-61
2022/07/01 03:59:01;;;;;;;0.50;0.45;;;;;;;;;;5032964;28;20034;-60
2022/07/01 04:01:27;;;;;;;1.10;0.50;;;;;;;;;;5033841;28;20029;-61
2022/07/01 04:03:53;;;;;;;1.15;0.50;;;;;;;;;;5033156;28;20451;-59
2022/07/01 04:06:19;;;;;;;0.80;0.50;;;;;;;;;;5032671;28;20032;-60
2022/07/01 04:08:46;;;;;;;0.85;0.80;;;;;;;;;;5033895;28;20042;-61
2022/07/01 04:11:12;;;;;;;0.60;0.57;;;;;;;;;;5032758;28;20026;-61
2022/07/01 04:13:38;;;;;;;0.50;0.43;;;;;;;;;;5033343;28;20052;-61
2022/07/01 04:16:04;;;;;;;0.50;0.40;;;;;;;;;;5032556;28;20035;-62
2022/07/01 04:18:31;;;;;;;1.15;0.60;;;;;;;;;;5032884;28;20525;-61
2022/07/01 04:23:42;;;;;;;0.43;0.40;;;;;;;;;;5032327;28;20438;-61
2022/07/01 04:26:08;;;;;;;1.38;0.52;;;;;;;;;;5024252;28;20033;-61
2022/07/01 04:28:34;;;;;;;1.27;0.60;;;;;;;;;;5033395;28;20483;-62
2022/07/01 04:31:00;;;;;;;0.52;0.50;;;;;;;;;;5032715;28;20097;-61
2022/07/01 04:33:27;;;;;;;0.45;0.45;;;;;;;;;;5033828;27;20126;-61
2022/07/01 04:35:53;;;;;;;0.50;0.40;;;;;;;;;;5032571;28;20080;-59
2022/07/01 04:38:19;;;;;;;1.70;0.50;;;;;;;;;;5031397;28;20026;-61
2022/07/01 04:41:58;;;;;;;0.77;0.60;;;;;;;;;;5032852;28;20371;-61
2022/07/01 04:43:31;;;;;;;0.40;0.40;;;;;;;;;;5027386;28;20034;-61
2022/07/01 04:45:57;;;;;;;1.63;0.90;;;;;;;;;;5032476;28;20041;-60
2022/07/01 04:48:23;;;;;;;0.60;0.50;;;;;;;;;;5026971;28;20026;-61
2022/07/01 04:50:49;;;;;;;0.40;0.40;;;;;;;;;;5032995;28;20071;-61
2022/07/01 04:53:15;;;;;;;0.98;0.60;;;;;;;;;;5032140;28;20558;-61
2022/07/01 04:55:41;;;;;;;0.90;0.60;;;;;;;;;;5031732;28;20029;-61
2022/07/01 04:58:07;;;;;;;0.75;0.50;;;;;;;;;;5031398;28;20037;-61
2022/07/01 05:00:33;;;;;;;0.60;0.50;;;;;;;;;;5032590;28;20040;-60
2022/07/01 05:02:59;;;;;;;0.50;0.50;;;;;;;;;;5031611;28;20428;-61
2022/07/01 05:05:25;;;;;;;0.68;0.50;;;;;;;;;;5031611;28;20119;-64
2022/07/01 05:07:51;;;;;;;1.23;0.60;;;;;;;;;;5032349;28;20028;-65
2022/07/01 05:10:17;;;;;;;0.75;0.45;;;;;;;;;;5031223;28;20466;-64
2022/07/01 05:12:43;;;;;;;1.25;0.50;;;;;;;;;;5031100;28;20036;-62
2022/07/01 05:15:09;;;;;;;1.70;0.60;;;;;;;;;;5031116;28;20040;-63
2022/07/01 05:23:05;;;;;;;0.80;0.40;;;;;;;;;;5031215;28;20028;-61
2022/07/01 05:25:31;;;;;;;2.88;0.60;;;;;;;;;;5032299;28;20033;-61
2022/07/01 05:27:56;;;;;;;1.67;0.30;;;;;;;;;;5032025;28;20053;-58
2022/07/01 05:30:23;;;;;;;1.13;0.50;;;;;;;;;;5029443;28;20401;-61
2022/07/01 05:32:49;;;;;;;0.60;0.50;;;;;;;;;;5031951;28;20025;-62
2022/07/01 05:35:15;;;;;;;1.48;0.70;;;;;;;;;;5017844;28;20652;-62
2022/07/01 05:37:43;;;;;;;2.13;0.38;;;;;;;;;;5031922;28;20038;-63
2022/07/01 05:40:10;;;;;;;2.53;0.47;;;;;;;;;;5030078;28;20387;-61
2022/07/01 05:42:36;;;;;;;1.13;0.40;;;;;;;;;;5031127;28;20049;-66
2022/07/01 05:45:03;;;;;;;2.92;0.63;;;;;;;;;;5029820;28;20028;-63
2022/07/01 05:47:29;;;;;;;1.63;0.50;;;;;;;;;;5020225;28;20030;-63
2022/07/01 05:49:55;;;;;;;2.38;0.88;;;;;;;;;;5029865;28;20091;-60
2022/07/01 05:52:20;;;;;;;3.03;0.60;;;;;;;;;;5030261;28;20029;-61
2022/07/01 05:54:46;;;;;;;1.80;0.60;;;;;;;;;;5031363;28;20025;-63
2022/07/01 05:57:12;;;;;;;1.05;0.57;;;;;;;;;;5027740;28;20037;-59
2022/07/01 05:59:38;;;;;;;1.27;0.60;;;;;;;;;;5025952;28;20086;-60
2022/07/01 06:02:04;;;;;;;1.83;1.20;;;;;;;;;;5022492;28;20417;-60
2022/07/01 06:04:30;;;;;;;2.03;1.13;;;;;;;;;;5029809;28;20151;-60
2022/07/01 06:06:56;;;;;;;1.50;0.50;;;;;;;;;;5028465;28;20087;-59
2022/07/01 06:09:22;;;;;;;2.35;0.68;;;;;;;;;;5028593;28;20106;-60
2022/07/01 06:11:49;;;;;;;1.13;0.85;;;;;;;;;;5033116;28;20030;-62
2022/07/01 06:14:15;;;;;;;2.45;0.85;;;;;;;;;;5030472;28;20021;-60
2022/07/01 06:16:41;;;;;;;1.30;0.70;;;;;;;;;;5024455;28;20033;-60
2022/07/01 06:19:07;;;;;;;3.22;0.75;;;;;;;;;;5028181;28;20542;-59
2022/07/01 06:21:33;;;;;;;1.55;0.60;;;;;;;;;;5024686;28;20482;-59
2022/07/01 06:23:59;;;;;;;0.70;0.63;;;;;;;;;;5022212;28;20047;-59
2022/07/01 06:26:25;;;;;;;2.05;0.80;;;;;;;;;;5031715;28;20037;-60
2022/07/01 06:28:51;;;;;;;1.45;0.50;;;;;;;;;;5028369;28;20022;-59
2022/07/01 06:31:17;;;;;;;1.50;0.68;;;;;;;;;;5030038;28;20060;-60
2022/07/01 06:33:43;;;;;;;1.83;0.85;;;;;;;;;;5020190;28;20474;-59
2022/07/01 06:36:09;;;;;;;1.08;0.52;;;;;;;;;;5013248;28;20118;-60
2022/07/01 06:38:35;;;;;;;0.60;0.57;;;;;;;;;;5014697;28;20352;-60
2022/07/01 06:43:46;;;;;;;1.75;0.73;;;;;;;;;;5018240;28;20061;-59
2022/07/01 06:46:12;;;;;;;1.10;0.60;;;;;;;;;;5017914;28;20057;-59
2022/07/01 06:48:38;;;;;;;1.02;0.93;;;;;;;;;;5010396;28;20025;-60
2022/07/01 06:51:04;;;;;;;1.42;0.95;;;;;;;;;;5006864;28;20023;-59
2022/07/01 06:53:30;;;;;;;2.15;0.60;;;;;;;;;;5017853;28;20387;-59
2022/07/01 06:55:57;;;;;;;2.42;0.70;;;;;;;;;;5018969;28;20069;-60
2022/07/01 06:58:23;;;;;;;0.90;0.65;;;;;;;;;;5008169;28;20104;-59
2022/07/01 07:00:49;;;;;;;1.77;0.60;;;;;;;;;;5019237;28;20462;-59
2022/07/01 07:03:15;;;;;;;0.95;0.47;;;;;;;;;;5004798;28;20102;-59
2022/07/01 07:05:41;;;;;;;1.05;0.65;;;;;;;;;;5008523;28;20030;-60
2022/07/01 07:08:07;;;;;;;1.27;0.60;;;;;;;;;;5016311;28;20060;-60
2022/07/01 07:10:33;;;;;;;0.65;0.40;;;;;;;;;;5019701;28;20057;-59
2022/07/01 07:12:59;;;;;;;3.35;0.70;;;;;;;;;;5021975;28;20108;-59
2022/07/01 07:15:25;;;;;;;1.05;0.85;;;;;;;;;;5018942;28;20038;-60
2022/07/01 07:17:51;;;;;;;1.73;0.82;;;;;;;;;;5021972;28;20042;-59
2022/07/01 07:20:17;;;;;;;0.77;0.60;;;;;;;;;;5022480;28;20076;-60
2022/07/01 07:22:43;;;;;;;1.10;0.65;;;;;;;;;;5019031;28;20427;-60
2022/07/01 07:25:09;;;;;;;1.33;0.70;;;;;;;;;;5011015;28;20022;-59
2022/07/01 07:27:35;;;;;;;1.42;0.60;;;;;;;;;;5010435;28;20022;-60
2022/07/01 07:30:03;;;;;;;0.95;0.50;;;;;;;;;;5013318;28;20535;-59
2022/07/01 07:32:30;;;;;;;2.25;0.60;;;;;;;;;;5008830;28;20026;-59
2022/07/01 07:34:56;;;;;;;1.27;0.50;;;;;;;;;;5015429;28;20052;-60
2022/07/01 07:37:22;;;;;;;0.80;0.32;;;;;;;;;;5015348;28;20589;-59
2022/07/01 07:39:48;;;;;;;0.43;0.43;;;;;;;;;;5010322;28;20053;-60
2022/07/01 07:42:14;;;;;;;1.08;0.68;;;;;;;;;;5011457;28;20065;-60
2022/07/01 07:44:40;;;;;;;1.90;0.70;;;;;;;;;;5008168;28;20057;-60
2022/07/01 07:47:06;;;;;;;1.20;0.50;;;;;;;;;;5010988;28;20069;-59
2022/07/01 07:49:31;;;;;;;0.82;0.60;;;;;;;;;;5008858;28;20103;-60
2022/07/01 07:51:57;;;;;;;0.57;0.47;;;;;;;;;;5007806;28;20097;-59
2022/07/01 07:54:23;;;;;;;0.75;0.60;;;;;;;;;;5005097;28;20022;-60
2022/07/01 07:56:49;;;;;;;1.17;0.63;;;;;;;;;;5005643;28;20040;-60
2022/07/01 07:59:15;;;;;;;1.10;0.63;;;;;;;;;;5006895;28;20033;-59
2022/07/01 08:01:41;;;;;;;1.42;0.60;;;;;;;;;;5013372;28;20025;-59
2022/07/01 08:04:07;;;;;;;2.05;0.68;;;;;;;;;;5005338;28;20467;-59
2022/07/01 08:06:33;;;;;;;1.10;0.60;;;;;;;;;;5015103;28;20371;-60
2022/07/01 08:09:00;;;;;;;1.45;0.80;;;;;;;;;;5017688;28;20022;-60
2022/07/01 08:11:26;;;;;;;1.17;0.52;;;;;;;;;;5011202;28;20048;-59
2022/07/01 08:13:51;;;;;;;2.30;0.60;;;;;;;;;;5012364;28;20519;-59
2022/07/01 08:16:17;;;;;;;2.92;1.20;;;;;;;;;;5011636;28;20042;-59
2022/07/01 08:18:43;;;;;;;1.17;0.60;;;;;;;;;;5013480;28;20040;-60
2022/07/01 08:21:09;;;;;;;1.17;0.82;;;;;;;;;;5012837;28;20030;-59
2022/07/01 08:23:36;;;;;;;1.05;0.63;;;;;;;;;;5011928;28;20030;-60
2022/07/01 08:26:02;;;;;;;0.63;0.50;;;;;;;;;;5011349;28;20044;-59
2022/07/01 08:28:28;;;;;;;0.82;0.45;;;;;;;;;;5010421;28;20059;-60
2022/07/01 08:30:54;;;;;;;2.45;0.85;;;;;;;;;;5011268;28;20025;-59
2022/07/01 08:33:20;;;;;;;0.93;0.70;;;;;;;;;;5012732;28;20038;-60
2022/07/01 08:35:46;;;;;;;2.65;0.55;;;;;;;;;;5012397;28;20458;-59
2022/07/01 08:38:12;;;;;;;1.02;0.77;;;;;;;;;;5012437;28;20059;-59
2022/07/01 08:40:38;;;;;;;1.20;0.50;;;;;;;;;;5017118;28;20026;-59
2022/07/01 08:43:05;;;;;;;1.77;0.60;;;;;;;;;;5011817;28;20018;-59
2022/07/01 08:45:32;;;;;;;1.70;0.70;;;;;;;;;;5011316;28;20152;-59
2022/07/01 08:48:02;;;;;;;0.57;0.43;;;;;;;;;;5012878;28;20029;-59
2022/07/01 08:50:34;;;;;;;1.27;0.50;;;;;;;;;;5013564;28;20033;-59
2022/07/01 08:53:00;;;;;;;0.95;0.55;;;;;;;;;;5012573;28;20145;-60
2022/07/01 08:55:26;;;;;;;0.93;0.70;;;;;;;;;;5014213;28;20104;-60
2022/07/01 08:57:52;;;;;;;0.75;0.50;;;;;;;;;;5013417;28;20041;-59
2022/07/01 09:00:19;;;;;;;1.73;0.70;;;;;;;;;;5008132;28;20110;-59
2022/07/01 09:02:54;;;;;;;0.63;0.50;;;;;;;;;;5005217;28;20481;-60
2022/07/01 09:05:20;;;;;;;1.25;0.57;;;;;;;;;;5009166;28;20026;-59
2022/07/01 09:07:47;;;;;;;1.00;0.50;;;;;;;;;;5012030;28;20018;-59
2022/07/01 09:10:19;;;;;;;2.97;0.75;;;;;;;;;;5012218;28;20034;-59
2022/07/01 09:12:46;;;;;;;1.85;0.70;;;;;;;;;;5008508;28;20030;-59
2022/07/01 09:15:21;;;;;;;0.80;0.70;;;;;;;;;;5011819;28;20036;-59
2022/07/01 09:17:47;;;;;;;3.63;0.60;;;;;;;;;;5008263;28;20142;-59
2022/07/01 09:20:26;;;;;;;3.88;1.20;;;;;;;;;;5008230;28;20043;-60
2022/07/01 09:23:02;;;;;;;2.00;0.55;;;;;;;;;;5007136;28;20022;-59
2022/07/01 09:25:30;;;;;;;5.10;1.00;;;;;;;;;;5012048;28;20030;-59
2022/07/01 09:28:05;;;;;;;1.65;0.57;;;;;;;;;;5011818;28;20033;-60
2022/07/01 09:30:32;;;;;;;1.20;0.70;;;;;;;;;;5008820;28;20041;-59
2022/07/01 09:33:08;;;;;;;1.33;0.60;;;;;;;;;;5011381;28;20034;-60
2022/07/01 09:35:36;;;;;;;2.65;0.60;;;;;;;;;;5031309;28;20379;-60
2022/07/01 09:38:02;;;;;;;3.88;0.70;;;;;;;;;;5029303;28;20113;-60
2022/07/01 09:40:46;;;;;;;0.80;0.55;;;;;;;;;;5025467;28;20036;-60
2022/07/01 09:43:16;;;;;;;3.30;1.10;;;;;;;;;;5019673;28;20382;-60
2022/07/01 09:45:57;;;;;;;1.65;0.65;;;;;;;;;;5035889;28;20059;-60
2022/07/01 09:48:25;;;;;;;1.00;0.63;;;;;;;;;;5027743;28;20029;-60
2022/07/01 09:50:51;;;;;;;2.17;0.70;;;;;;;;;;5030111;28;20041;-60
2022/07/01 09:53:18;;;;;;;1.38;1.05;;;;;;;;;;5032684;28;20026;-59
2022/07/01 09:55:44;;;;;;;1.10;0.80;;;;;;;;;;5027237;28;20029;-60
2022/07/01 09:58:10;;;;;;;3.92;0.63;;;;;;;;;;5027544;28;20410;-59
2022/07/01 10:00:37;;;;;;;2.17;0.70;;;;;;;;;;5027979;28;20041;-60
2022/07/01 10:03:04;;;;;;;2.05;0.50;;;;;;;;;;5013148;28;21739;-64
2022/07/01 10:05:31;;;;;;;0.80;0.63;;;;;;;;;;5025144;28;20059;-62
2022/07/01 10:07:58;;;;;;;2.15;0.60;;;;;;;;;;5022482;28;20029;-62
2022/07/01 10:10:24;;;;;;;1.05;0.60;;;;;;;;;;5030964;28;20104;-62
2022/07/01 10:12:54;;;;;;;1.10;0.70;;;;;;;;;;5031329;28;20068;-62
2022/07/01 10:15:21;;;;;;;0.98;0.57;;;;;;;;;;5030340;28;20417;-62
2022/07/01 10:17:48;;;;;;;1.33;0.70;;;;;;;;;;5030215;28;20087;-62
2022/07/01 10:20:15;;;;;;;1.05;0.55;;;;;;;;;;5030640;28;20096;-63
2022/07/01 10:22:41;;;;;;;1.35;0.63;;;;;;;;;;5030304;28;20087;-62
2022/07/01 10:25:26;;;;;;;2.78;0.70;;;;;;;;;;5030243;28;20030;-58
2022/07/01 10:28:24;;;;;;;1.23;0.50;;;;;;;;;;5031379;28;20450;-61
2022/07/01 10:30:59;;;;;;;6.38;0.85;;;;;;;;;;5008480;28;20038;-61
2022/07/01 10:33:28;;;;;;;1.58;0.90;;;;;;;;;;5028796;28;20025;-62
2022/07/01 10:35:54;;;;;;;1.13;0.60;;;;;;;;;;5029509;28;20029;-61
2022/07/01 10:38:20;;;;;;;2.78;1.50;;;;;;;;;;5024248;28;20398;-58
2022/07/01 10:40:48;;;;;;;1.33;0.52;;;;;;;;;;5027765;28;20022;-60
2022/07/01 10:43:31;;;;;;;0.90;0.60;;;;;;;;;;5027893;28;20410;-61
2022/07/01 10:45:57;;;;;;;1.13;0.43;;;;;;;;;;5030884;28;20055;-61
2022/07/01 10:48:24;;;;;;;1.25;0.38;;;;;;;;;;5026002;28;20506;-62
2022/07/01 10:50:51;;;;;;;0.88;0.50;;;;;;;;;;5031389;28;20030;-61
2022/07/01 10:53:18;;;;;;;0.70;0.40;;;;;;;;;;5030187;28;20034;-62
2022/07/01 10:55:48;;;;;;;0.70;0.50;;;;;;;;;;5030860;28;20025;-62
2022/07/01 10:58:17;;;;;;;0.70;0.50;;;;;;;;;;5034342;28;20093;-62
2022/07/01 11:00:44;;;;;;;1.13;0.60;;;;;;;;;;5019663;28;20064;-61
2022/07/01 11:03:10;;;;;;;1.80;0.95;;;;;;;;;;5027427;28;20061;-56
2022/07/01 11:05:37;;;;;;;1.10;0.55;;;;;;;;;;5027305;28;20028;-62
2022/07/01 11:08:05;;;;;;;1.20;0.50;;;;;;;;;;5021880;28;20073;-61
2022/07/01 11:10:31;;;;;;;1.70;0.60;;;;;;;;;;5026292;28;20135;-61
2022/07/01 11:12:57;;;;;;;1.13;0.60;;;;;;;;;;5029235;28;20033;-62
2022/07/01 11:15:23;;;;;;;1.15;0.50;;;;;;;;;;5028250;28;20385;-61
2022/07/01 11:17:50;;;;;;;0.73;0.60;;;;;;;;;;5021285;28;20458;-62
2022/07/01 11:20:16;;;;;;;0.98;0.70;;;;;;;;;;5026497;28;20033;-61
2022/07/01 11:22:42;;;;;;;2.55;0.57;;;;;;;;;;5023285;28;20037;-62
2022/07/01 11:25:10;;;;;;;0.60;0.55;;;;;;;;;;5023293;28;20025;-58
2022/07/01 11:27:37;;;;;;;1.50;0.80;;;;;;;;;;5022202;28;20021;-62
2022/07/01 11:30:08;;;;;;;1.27;0.47;;;;;;;;;;5023124;28;20053;-62
2022/07/01 11:32:34;;;;;;;;;;;;;;;;;;5027286;28;20054;-61
2022/07/01 11:35:01;;;;;;;1.23;0.60;;;;;;;;;;5026484;28;19960;-62
2022/07/01 11:40:14;;;;;;;0.60;0.50;;;;;;;;;;5032922;28;20040;-61
2022/07/01 11:42:40;;;;;;;5.13;0.70;;;;;;;;;;5033066;28;20029;-62
2022/07/01 11:45:07;;;;;;;0.80;0.50;;;;;;;;;;5026132;28;20036;-62
2022/07/01 11:47:33;;;;;;;2.40;0.60;;;;;;;;;;5030844;28;20034;-62
2022/07/01 11:49:59;;;;;;;1.73;0.60;;;;;;;;;;5029019;28;20101;-62
2022/07/01 11:52:26;;;;;;;1.00;0.70;;;;;;;;;;5033275;28;20529;-62
2022/07/01 11:54:53;;;;;;;1.50;0.85;;;;;;;;;;5029329;28;20064;-62
2022/07/01 11:57:23;;;;;;;1.67;0.50;;;;;;;;;;5025187;28;20037;-62
2022/07/01 11:59:50;;;;;;;1.15;1.00;;;;;;;;;;5027547;28;20080;-62
2022/07/01 12:02:17;;;;;;;1.17;0.60;;;;;;;;;;5021010;28;20399;-62
2022/07/01 12:04:43;;;;;;;1.38;0.57;;;;;;;;;;5027695;28;20022;-62
2022/07/01 12:07:10;;;;;;;1.00;0.65;;;;;;;;;;5028055;28;20088;-57
2022/07/01 12:09:37;;;;;;;0.95;0.50;;;;;;;;;;5027216;28;20034;-62
2022/07/01 12:12:03;;;;;;;1.08;0.60;;;;;;;;;;5019489;28;20382;-62
2022/07/01 12:14:38;;;;;;;3.88;0.70;;;;;;;;;;5027704;28;20107;-61
2022/07/01 12:17:05;;;;;;;1.33;0.45;;;;;;;;;;5024239;28;20024;-62
2022/07/01 12:19:39;;;;;;;1.45;0.50;;;;;;;;;;5022918;28;20025;-62
2022/07/01 12:22:12;;;;;;;1.05;0.50;;;;;;;;;;5031543;28;20115;-62
2022/07/01 12:24:38;;;;;;;0.73;0.50;;;;;;;;;;5027227;28;20037;-61
2022/07/01 12:27:05;;;;;;;1.80;0.63;;;;;;;;;;5025340;28;20037;-62
2022/07/01 12:29:51;;;;;;;1.77;0.70;;;;;;;;;;5022431;28;20084;-61
2022/07/01 12:32:18;;;;;;;0.75;0.40;;;;;;;;;;5030277;28;20033;-61
2022/07/01 12:34:45;;;;;;;1.88;0.70;;;;;;;;;;5027429;28;20061;-62
2022/07/01 12:37:13;;;;;;;1.23;0.60;;;;;;;;;;5022858;28;20025;-57
2022/07/01 12:39:46;;;;;;;0.80;0.50;;;;;;;;;;5025786;28;20044;-62
2022/07/01 12:42:29;;;;;;;0.82;0.60;;;;;;;;;;5031312;28;20026;-57
2022/07/01 12:44:56;;;;;;;0.40;0.40;;;;;;;;;;5030067;28;20025;-60
2022/07/01 12:47:27;;;;;;;0.55;0.30;;;;;;;;;;5025358;28;20034;-61
2022/07/01 12:50:08;;;;;;;1.50;0.50;;;;;;;;;;5021973;28;20034;-60
2022/07/01 12:52:34;;;;;;;;;;;;;;;;;;5025846;28;20026;-60
2022/07/01 12:55:00;;;;;;;1.45;0.50;;;;;;;;;;5025604;28;20266;-60
2022/07/01 12:57:30;;;;;;;0.63;0.40;;;;;;;;;;5029062;28;20060;-60
2022/07/01 12:59:56;;;;;;;2.25;0.63;;;;;;;;;;5026547;28;20058;-60
2022/07/01 13:02:23;;;;;;;0.80;0.50;;;;;;;;;;5024182;28;20390;-60
2022/07/01 13:04:49;;;;;;;0.85;0.63;;;;;;;;;;5027630;28;20037;-60
2022/07/01 13:07:15;;;;;;;1.75;0.77;;;;;;;;;;5024741;28;20052;-60
2022/07/01 13:09:41;;;;;;;1.45;0.80;;;;;;;;;;5035474;28;20022;-61
2022/07/01 13:12:07;;;;;;;2.38;0.63;;;;;;;;;;5026963;28;20022;-60
2022/07/01 13:14:33;;;;;;;1.80;0.70;;;;;;;;;;5025485;28;20025;-62
2022/07/01 13:16:59;;;;;;;0.77;0.60;;;;;;;;;;5031395;28;20025;-61
2022/07/01 13:19:25;;;;;;;1.83;0.60;;;;;;;;;;5021713;28;20532;-61
2022/07/01 13:21:51;;;;;;;1.08;0.70;;;;;;;;;;5033309;28;20030;-61
2022/07/01 13:24:17;;;;;;;2.20;0.90;;;;;;;;;;5028901;28;20394;-61
2022/07/01 13:26:43;;;;;;;2.05;0.77;;;;;;;;;;5026994;28;20117;-61
2022/07/01 13:29:09;;;;;;;2.05;0.80;;;;;;;;;;5027445;28;20036;-60
2022/07/01 13:31:35;;;;;;;3.28;0.90;;;;;;;;;;5023083;28;20408;-61
2022/07/01 13:34:01;;;;;;;6.10;1.08;;;;;;;;;;5022900;28;20099;-61
2022/07/01 13:36:27;;;;;;;4.72;0.90;;;;;;;;;;5024814;28;20038;-62
2022/07/01 13:38:53;;;;;;;2.70;1.58;;;;;;;;;;5025439;28;20026;-61
2022/07/01 13:41:21;;;;;;;3.40;0.90;;;;;;;;;;5028436;28;20499;-61
2022/07/01 13:43:47;;;;;;;2.65;1.23;;;;;;;;;;5027523;28;20026;-62
2022/07/01 13:46:13;;;;;;;1.70;0.85;;;;;;;;;;5031875;28;20029;-60
2022/07/01 13:48:39;;;;;;;3.05;1.60;;;;;;;;;;5024923;28;20040;-61
2022/07/01 13:51:05;;;;;;;1.77;1.15;;;;;;;;;;5029879;28;20036;-59
2022/07/01 13:53:31;;;;;;;1.38;0.93;;;;;;;;;;5033548;28;20029;-63
2022/07/01 13:55:57;;;;;;;1.50;0.98;;;;;;;;;;5030472;28;20071;-63
2022/07/01 13:58:23;;;;;;;3.05;1.08;;;;;;;;;;5030447;28;20390;-62
2022/07/01 14:00:49;;;;;;;3.45;1.17;;;;;;;;;;5028537;28;20026;-64
2022/07/01 14:03:15;;;;;;;3.95;0.77;;;;;;;;;;5027101;28;20083;-61
2022/07/01 14:05:41;;;;;;;1.75;1.02;;;;;;;;;;5024394;28;20113;-62
2022/07/01 14:08:07;;;;;;;1.00;0.70;;;;;;;;;;5033010;28;20032;-61
2022/07/01 14:10:35;;;;;;;1.75;0.88;;;;;;;;;;5031216;28;20156;-62
2022/07/01 14:13:01;;;;;;;2.72;1.00;;;;;;;;;;5031510;28;20029;-62
2022/07/01 14:15:27;;;;;;;1.85;0.80;;;;;;;;;;5030598;28;20116;-62
2022/07/01 14:17:53;;;;;;;2.60;0.90;;;;;;;;;;5027116;28;20112;-61
2022/07/01 14:20:19;;;;;;;1.90;0.70;;;;;;;;;;5029553;28;20029;-62
2022/07/01 14:22:45;;;;;;;1.83;0.90;;;;;;;;;;5028601;28;20029;-61
2022/07/01 14:25:11;;;;;;;1.77;0.70;;;;;;;;;;5029455;28;20383;-61
2022/07/01 14:27:38;;;;;;;1.13;0.75;;;;;;;;;;5023229;28;20056;-62
2022/07/01 14:30:05;;;;;;;1.58;0.60;;;;;;;;;;5027478;28;20018;-62
2022/07/01 14:32:32;;;;;;;1.63;0.80;;;;;;;;;;5026248;28;20032;-62
2022/07/01 14:34:58;;;;;;;4.55;1.58;;;;;;;;;;5026951;28;20106;-61
2022/07/01 14:37:24;;;;;;;3.47;1.33;;;;;;;;;;5028930;28;20072;-61
2022/07/01 14:39:53;;;;;;;1.00;0.70;;;;;;;;;;5028012;28;20080;-61
2022/07/01 14:42:19;;;;;;;0.75;0.60;;;;;;;;;;5012545;28;20363;-61
2022/07/01 14:44:45;;;;;;;0.93;0.65;;;;;;;;;;5031068;28;20493;-61
2022/07/01 14:47:11;;;;;;;1.08;0.60;;;;;;;;;;5027770;28;20038;-64
2022/07/01 14:49:37;;;;;;;2.28;0.70;;;;;;;;;;5027206;28;20033;-62
2022/07/01 14:52:03;;;;;;;1.95;0.90;;;;;;;;;;5029421;28;20021;-62
2022/07/01 14:54:29;;;;;;;0.50;0.40;;;;;;;;;;5030318;28;20112;-61
2022/07/01 14:56:55;;;;;;;2.80;0.75;;;;;;;;;;5031309;28;20080;-61
2022/07/01 14:59:21;;;;;;;0.75;0.60;;;;;;;;;;5030262;28;20037;-61